Terminal Aerodrome Forecast
Issued by NWS

Home | Current Version | Previous Version | Text Only | Print | Product List | Glossary On
Versions: 1 2 3 4 5 6 7 8 9 10 11 12 13 14
095
FTUS44 KSJT 202325
TAFBBD
TAF
KBBD 202325Z 2100/2124 21011G17KT P6SM SKC
     FM210500 17007KT P6SM BKN012
     FM210800 17007KT P6SM BKN008
     FM211600 19012KT P6SM BKN012
     FM211800 24016G24KT P6SM SKC
      AMD NOT SKED=

USA.gov is the U.S. government's official web portal to all federal, state and local government web resources and services.